Time;durP1;ratioP1;P1;durP2;ratioP2;P2;SDS_P1;SDS_P2;PMS_P1;PMS_P2;Temp;Humidity;BMP_temperature;BMP_pressure;BME280_temperature;BME280_humidity;BME280_pressure;Samples;Min_cycle;Max_cycle;Signal;HPM_P1;HPM_P2
2021/04/08 00:02:03;;;;;;;8.55;5.30;;;;;;;3.29;66.65;100662.34;5054271;28;20041;-63
2021/04/08 00:04:32;;;;;;;9.73;5.85;;;;;;;3.29;66.83;100656.31;5053730;28;20090;-63
2021/04/08 00:07:09;;;;;;;11.95;6.22;;;;;;;3.29;66.35;100658.88;5035884;28;20043;-63
2021/04/08 00:09:43;;;;;;;7.28;5.53;;;;;;;3.29;66.55;100658.88;5053175;28;20033;-63
2021/04/08 00:12:19;;;;;;;10.50;5.68;;;;;;;3.28;66.79;100655.44;5053789;28;20041;-63
2021/04/08 00:14:53;;;;;;;9.40;5.28;;;;;;;3.29;66.28;100661.44;5052666;28;20206;-63
2021/04/08 00:17:27;;;;;;;8.35;5.25;;;;;;;3.27;66.62;100656.25;5052327;28;20484;-63
2021/04/08 00:20:03;;;;;;;9.25;4.47;;;;;;;3.28;66.84;100657.09;5036260;28;20094;-63
2021/04/08 00:22:34;;;;;;;7.50;5.55;;;;;;;3.28;66.49;100662.22;5052726;28;20411;-62
2021/04/08 00:25:14;;;;;;;8.10;5.60;;;;;;;3.28;66.78;100663.13;5053629;28;20045;-63
2021/04/08 00:27:46;;;;;;;7.68;4.35;;;;;;;3.28;66.38;100663.13;5052035;28;20060;-63
2021/04/08 00:30:17;;;;;;;8.10;5.50;;;;;;;3.27;66.52;100656.25;5053588;28;20036;-63
2021/04/08 00:32:59;;;;;;;8.32;5.95;;;;;;;3.28;66.71;100662.22;5020003;28;20091;-63
2021/04/08 00:35:33;;;;;;;13.10;5.25;;;;;;;3.28;66.78;100659.66;5019561;28;20045;-63
2021/04/08 00:38:06;;;;;;;6.28;4.97;;;;;;;3.27;66.35;100661.38;5052259;28;20041;-63
2021/04/08 00:40:41;;;;;;;6.97;5.13;;;;;;;3.28;66.76;100657.09;5035338;28;20041;-63
2021/04/08 00:43:22;;;;;;;6.00;5.07;;;;;;;3.27;66.25;100663.91;5053698;28;20346;-63
2021/04/08 00:45:53;;;;;;;7.47;5.57;;;;;;;3.28;66.64;100657.09;5053436;28;20135;-63
2021/04/08 00:48:28;;;;;;;7.32;5.22;;;;;;;3.28;66.50;100654.53;5035497;28;20040;-63
2021/04/08 00:51:04;;;;;;;9.60;4.90;;;;;;;3.28;66.49;100662.22;5035337;28;20094;-63
2021/04/08 00:53:39;;;;;;;6.00;4.63;;;;;;;3.29;66.23;100659.78;5053557;28;20116;-63
2021/04/08 00:56:11;;;;;;;7.72;5.05;;;;;;;3.28;66.35;100662.22;5019198;28;20049;-63
2021/04/08 00:58:43;;;;;;;12.38;6.03;;;;;;;3.28;66.70;100668.25;5035687;28;20033;-63
2021/04/08 01:01:21;;;;;;;7.97;5.18;;;;;;;3.27;66.32;100669.03;5052794;28;20094;-63
2021/04/08 01:03:52;;;;;;;8.65;5.43;;;;;;;3.28;66.46;100669.91;5053248;28;20029;-63
2021/04/08 01:06:30;;;;;;;9.23;5.22;;;;;;;3.28;66.57;100664.78;5035364;28;20040;-63
2021/04/08 01:09:01;;;;;;;8.48;5.00;;;;;;;3.27;66.73;100670.75;5053339;28;20120;-63
2021/04/08 01:11:32;;;;;;;7.82;4.50;;;;;;;3.27;66.53;100671.59;5035037;28;20079;-63
2021/04/08 01:14:06;;;;;;;9.18;4.75;;;;;;;3.27;66.52;100674.16;5035098;28;20072;-64
2021/04/08 01:16:46;;;;;;;6.88;5.65;;;;;;;3.27;66.22;100678.44;5018581;28;20067;-63
2021/04/08 01:19:49;;;;;;;7.78;5.65;;;;;;;3.27;66.16;100681.00;5018716;28;20041;-63
2021/04/08 01:22:38;;;;;;;8.48;4.97;;;;;;;3.27;66.70;100681.00;5018706;28;20036;-63
2021/04/08 01:25:21;;;;;;;7.65;5.15;;;;;;;3.27;66.64;100673.31;5033394;28;20050;-63
2021/04/08 01:28:01;;;;;;;9.30;5.50;;;;;;;3.26;66.50;100672.41;5035455;28;20040;-63
2021/04/08 01:30:41;;;;;;;8.30;5.05;;;;;;;3.27;67.07;100681.00;5035309;28;20044;-63
2021/04/08 01:33:31;;;;;;;11.15;5.50;;;;;;;3.26;66.68;100681.78;5053069;28;20036;-63
2021/04/08 01:36:00;;;;;;;6.65;4.55;;;;;;;3.25;66.83;100683.44;5056822;28;20048;-63
2021/04/08 01:38:35;;;;;;;6.47;5.18;;;;;;;3.26;66.90;100684.34;5022347;28;20051;-63
2021/04/08 01:41:11;;;;;;;9.95;5.65;;;;;;;3.28;66.60;100677.59;5038822;28;20033;-63
2021/04/08 01:43:49;;;;;;;8.45;5.13;;;;;;;3.25;66.80;100673.19;5039002;28;20067;-63
2021/04/08 01:46:24;;;;;;;8.55;5.38;;;;;;;3.25;66.66;100677.47;5055439;28;20396;-63
2021/04/08 01:49:00;;;;;;;6.90;4.38;;;;;;;3.26;66.89;100672.41;5039045;28;20049;-63
2021/04/08 01:51:32;;;;;;;7.50;4.97;;;;;;;3.25;66.74;100680.88;5038683;28;20068;-63
2021/04/08 01:54:12;;;;;;;10.15;5.03;;;;;;;3.25;66.67;100680.88;5056145;28;20039;-63
2021/04/08 01:56:46;;;;;;;8.57;4.80;;;;;;;3.25;67.00;100683.44;5056589;28;20041;-63
2021/04/08 01:59:18;;;;;;;;;;;;;;;3.25;66.40;100683.44;5057056;28;20051;-63
2021/04/08 02:01:56;;;;;;;6.80;4.78;;;;;;;3.25;66.66;100682.56;5038607;28;19917;-63
2021/04/08 02:04:31;;;;;;;;;;;;;;;3.23;66.45;100687.59;5056632;28;20037;-63
2021/04/08 02:07:07;;;;;;;8.10;5.40;;;;;;;3.22;66.91;100680.72;5037948;28;20371;-63
2021/04/08 02:09:40;;;;;;;10.32;5.75;;;;;;;3.24;66.80;100678.25;5056108;28;20029;-63
2021/04/08 02:12:13;;;;;;;7.80;5.15;;;;;;;3.23;66.49;100672.22;5038262;28;20044;-63
2021/04/08 02:14:51;;;;;;;7.30;4.82;;;;;;;3.24;66.45;100684.25;5055821;28;20045;-63
2021/04/08 02:17:24;;;;;;;7.55;5.15;;;;;;;3.24;66.96;100675.69;5056065;28;20095;-63
2021/04/08 02:19:59;;;;;;;7.72;5.60;;;;;;;3.23;66.67;100674.78;5056025;28;20045;-63
2021/04/08 02:22:28;;;;;;;10.23;6.20;;;;;;;3.24;66.65;100674.00;5054890;28;20120;-63
2021/04/08 02:24:57;;;;;;;9.55;6.15;;;;;;;3.24;66.89;100668.00;5037935;28;20447;-63
2021/04/08 02:27:32;;;;;;;7.45;5.97;;;;;;;3.25;66.87;100669.78;5020916;28;20041;-63
2021/04/08 02:30:08;;;;;;;8.25;5.78;;;;;;;3.24;67.20;100663.75;5056156;28;20047;-63
2021/04/08 02:32:39;;;;;;;10.45;5.53;;;;;;;3.25;66.84;100667.22;5054847;28;20044;-63
2021/04/08 02:35:13;;;;;;;9.18;5.80;;;;;;;3.24;66.63;100674.00;5055827;28;20063;-63
2021/04/08 02:37:45;;;;;;;14.65;5.85;;;;;;;3.25;66.57;100673.19;5055971;28;20095;-63
2021/04/08 02:40:22;;;;;;;8.32;5.30;;;;;;;3.24;66.79;100674.00;5038217;28;20037;-63
2021/04/08 02:42:53;;;;;;;7.45;5.88;;;;;;;3.25;66.83;100673.19;5055852;28;20040;-63
2021/04/08 02:45:32;;;;;;;8.70;5.10;;;;;;;3.24;66.85;100684.25;5020874;28;20131;-63
2021/04/08 02:48:13;;;;;;;7.20;5.43;;;;;;;3.25;66.62;100680.88;5055479;28;20117;-63
2021/04/08 02:50:43;;;;;;;6.15;5.05;;;;;;;3.25;66.85;100677.47;5055553;28;20054;-63
2021/04/08 02:53:42;;;;;;;10.23;5.20;;;;;;;3.24;66.89;100680.81;5055102;28;20084;-63
2021/04/08 02:56:39;;;;;;;6.95;5.68;;;;;;;3.24;66.82;100681.69;5037197;28;20498;-63
2021/04/08 02:59:30;;;;;;;10.77;5.93;;;;;;;3.25;66.92;100686.00;5021492;28;20037;-63
2021/04/08 03:02:09;;;;;;;9.02;6.15;;;;;;;3.24;66.74;100684.25;5037193;28;20048;-63
2021/04/08 03:04:49;;;;;;;9.65;5.80;;;;;;;3.25;66.92;100690.25;5037892;28;20029;-63
2021/04/08 03:07:48;;;;;;;6.38;5.25;;;;;;;3.24;66.79;100685.94;5037204;28;20040;-63
2021/04/08 03:10:24;;;;;;;7.18;5.20;;;;;;;3.25;66.85;100687.69;5054861;28;20086;-63
2021/04/08 03:13:06;;;;;;;7.60;5.93;;;;;;;3.25;66.94;100677.47;5036517;28;20038;-63
2021/04/08 03:15:45;;;;;;;10.13;5.40;;;;;;;3.25;66.75;100683.44;5053807;28;20033;-63
2021/04/08 03:18:23;;;;;;;6.80;5.18;;;;;;;3.26;66.55;100687.78;5036892;28;20037;-63
2021/04/08 03:21:04;;;;;;;7.82;4.85;;;;;;;3.24;66.63;100686.81;5020003;28;20033;-63
2021/04/08 03:23:42;;;;;;;8.13;5.10;;;;;;;3.24;67.01;100689.38;5053223;28;20546;-63
2021/04/08 03:26:23;;;;;;;9.10;4.80;;;;;;;3.25;66.48;100685.13;5037149;28;20037;-63
2021/04/08 03:28:58;;;;;;;12.55;5.95;;;;;;;3.24;66.96;100686.81;5053572;28;20476;-63
2021/04/08 03:31:31;;;;;;;9.65;5.50;;;;;;;3.24;67.03;100680.81;5020159;28;20064;-63
2021/04/08 03:34:15;;;;;;;9.02;5.75;;;;;;;3.25;67.11;100690.25;5037183;28;20037;-63
2021/04/08 03:36:46;;;;;;;13.25;5.40;;;;;;;3.24;66.72;100686.81;5053056;28;20075;-63
2021/04/08 03:39:23;;;;;;;8.25;6.20;;;;;;;3.25;67.14;100690.25;5020430;28;20404;-63
2021/04/08 03:42:15;;;;;;;9.15;5.60;;;;;;;3.24;66.70;100684.25;5053314;28;20380;-63
2021/04/08 03:44:57;;;;;;;10.40;6.38;;;;;;;3.24;67.18;100685.94;5037211;28;20116;-63
2021/04/08 03:47:37;;;;;;;8.07;5.53;;;;;;;3.23;67.27;100684.16;5054769;28;20485;-63
2021/04/08 03:50:20;;;;;;;8.48;5.80;;;;;;;3.23;66.73;100686.72;5036565;28;20040;-63
2021/04/08 03:52:56;;;;;;;10.88;6.38;;;;;;;3.23;67.08;100682.47;5018872;28;20124;-63
2021/04/08 03:55:40;;;;;;;8.93;6.43;;;;;;;3.24;66.88;100691.94;5054570;28;20037;-63
2021/04/08 03:58:20;;;;;;;7.03;5.78;;;;;;;3.23;66.90;100686.72;5054292;28;20527;-63
2021/04/08 04:01:01;;;;;;;7.68;5.68;;;;;;;3.22;66.91;100693.50;5054113;28;20040;-63
2021/04/08 04:03:39;;;;;;;8.90;5.60;;;;;;;3.24;66.73;100691.06;5015022;28;20057;-63
2021/04/08 04:06:20;;;;;;;7.05;5.15;;;;;;;3.22;66.77;100688.41;5014476;28;20504;-63
2021/04/08 04:09:03;;;;;;;9.55;6.30;;;;;;;3.23;66.54;100684.16;5014344;28;20489;-63
2021/04/08 04:11:38;;;;;;;9.07;5.55;;;;;;;3.22;66.90;100684.97;5014196;28;20115;-63
2021/04/08 04:14:22;;;;;;;8.93;5.60;;;;;;;3.23;67.23;100679.03;5013363;28;20042;-63
2021/04/08 04:17:25;;;;;;;9.20;6.00;;;;;;;3.23;66.85;100686.72;5012678;28;20494;-63
2021/04/08 04:20:03;;;;;;;9.93;6.32;;;;;;;3.22;67.29;100688.41;5013027;28;20038;-63
2021/04/08 04:22:47;;;;;;;7.63;5.40;;;;;;;3.22;66.93;100682.41;5012950;28;20034;-63
2021/04/08 04:25:18;;;;;;;9.73;5.43;;;;;;;3.22;66.82;100684.97;4996463;28;20040;-63
2021/04/08 04:27:54;;;;;;;9.68;5.93;;;;;;;3.22;67.27;100688.41;5029300;28;20096;-63
2021/04/08 04:30:26;;;;;;;8.68;6.13;;;;;;;3.21;67.27;100691.75;5012687;28;20409;-63
2021/04/08 04:33:07;;;;;;;8.52;6.55;;;;;;;3.22;67.19;100692.66;5029155;28;20046;-63
2021/04/08 04:35:42;;;;;;;9.93;6.32;;;;;;;3.21;67.20;100689.19;5012833;28;20042;-63
2021/04/08 04:38:19;;;;;;;10.68;6.13;;;;;;;3.20;66.77;100690.88;5028978;28;20049;-63
2021/04/08 04:40:56;;;;;;;8.85;5.70;;;;;;;3.19;67.33;100694.25;5012219;28;20092;-63
2021/04/08 04:43:25;;;;;;;8.82;5.60;;;;;;;3.19;67.17;100699.38;5012693;28;20030;-63
2021/04/08 04:45:57;;;;;;;10.45;6.00;;;;;;;3.20;66.75;100696.00;5012485;28;20119;-63
2021/04/08 04:48:30;;;;;;;12.75;7.25;;;;;;;3.20;67.13;100698.56;5012551;28;20041;-63
2021/04/08 04:51:05;;;;;;;7.78;5.65;;;;;;;3.19;66.95;100699.38;5012459;28;20099;-63
2021/04/08 04:53:33;;;;;;;8.20;5.22;;;;;;;3.19;66.88;100693.38;5013489;28;20042;-63
2021/04/08 04:56:05;;;;;;;12.02;6.40;;;;;;;3.19;67.27;100694.25;5013426;28;20038;-63
2021/04/08 04:58:38;;;;;;;9.57;6.72;;;;;;;3.19;67.24;100695.94;5012118;28;20038;-63
2021/04/08 05:01:10;;;;;;;7.80;5.93;;;;;;;3.20;67.38;100697.66;5012167;28;20048;-63
2021/04/08 05:03:44;;;;;;;10.82;6.07;;;;;;;3.19;66.91;100701.91;5052990;28;20167;-64
2021/04/08 05:06:24;;;;;;;9.00;6.03;;;;;;;3.19;67.24;100707.03;5018665;28;20503;-63
2021/04/08 05:08:55;;;;;;;7.75;6.82;;;;;;;3.18;66.99;100696.72;5053086;28;20047;-63
2021/04/08 05:11:33;;;;;;;11.43;6.38;;;;;;;3.18;67.23;100700.16;5039528;28;20057;-63
2021/04/08 05:14:07;;;;;;;9.45;6.95;;;;;;;3.19;67.36;100698.50;5057251;28;20502;-63
2021/04/08 05:16:38;;;;;;;;;;;;;;;3.16;67.13;100699.19;5022994;28;20036;-63
2021/04/08 05:19:17;;;;;;;9.68;6.78;;;;;;;3.17;67.37;100711.19;5039953;28;19966;-63
2021/04/08 05:21:50;;;;;;;7.93;6.22;;;;;;;3.16;67.01;100713.69;5023310;28;20060;-63
2021/04/08 05:24:22;;;;;;;10.13;6.63;;;;;;;3.16;66.84;100709.44;5039292;28;20043;-63
2021/04/08 05:26:57;;;;;;;12.05;6.97;;;;;;;3.15;67.08;100712.78;5022578;28;20037;-63
2021/04/08 05:29:28;;;;;;;10.35;7.38;;;;;;;3.16;67.35;100704.31;5057422;28;20041;-63
2021/04/08 05:32:00;;;;;;;;;;;;;;;3.15;67.30;100712.78;5023745;28;20043;-63
2021/04/08 05:34:31;;;;;;;9.40;7.13;;;;;;;3.15;67.04;100706.78;5056383;28;19958;-63
2021/04/08 05:36:59;;;;;;;12.20;7.00;;;;;;;3.14;67.44;100710.16;5022861;28;20045;-63
2021/04/08 05:39:34;;;;;;;10.88;7.30;;;;;;;3.15;67.27;100714.47;5055510;28;20511;-63
2021/04/08 05:42:06;;;;;;;13.87;8.27;;;;;;;3.16;67.42;100711.13;5057053;28;20059;-63
2021/04/08 05:44:40;;;;;;;14.70;8.38;;;;;;;3.15;67.41;100715.34;5056778;28;20322;-63
2021/04/08 05:47:11;;;;;;;16.38;7.15;;;;;;;3.15;67.04;100714.47;5038881;28;20040;-63
2021/04/08 05:49:44;;;;;;;12.50;8.38;;;;;;;3.16;67.15;100721.38;5038500;28;20032;-63
2021/04/08 05:52:21;;;;;;;12.60;7.65;;;;;;;3.15;67.50;100722.16;5055362;28;20116;-63
2021/04/08 05:54:52;;;;;;;13.48;8.77;;;;;;;3.15;67.03;100717.03;5055337;28;20488;-63
2021/04/08 05:57:21;;;;;;;13.65;9.27;;;;;;;3.16;66.99;100729.06;5038022;28;20067;-63
2021/04/08 05:59:58;;;;;;;11.23;7.60;;;;;;;3.15;66.93;100727.28;5038527;28;20132;-63
2021/04/08 06:02:33;;;;;;;12.25;7.82;;;;;;;3.15;67.28;100727.28;5038286;28;20052;-63
2021/04/08 06:05:10;;;;;;;13.57;7.72;;;;;;;3.16;67.26;100734.19;5038688;28;20036;-63
2021/04/08 06:07:42;;;;;;;16.63;8.60;;;;;;;3.16;66.96;100726.50;5056131;28;20511;-63
2021/04/08 06:10:10;;;;;;;13.25;8.52;;;;;;;3.15;67.21;100732.41;5021722;28;20048;-63
2021/04/08 06:12:46;;;;;;;14.40;8.23;;;;;;;3.16;67.11;100727.38;5055624;28;20099;-63
2021/04/08 06:15:19;;;;;;;14.55;8.63;;;;;;;3.15;66.87;100735.84;5055585;28;20040;-63
2021/04/08 06:17:53;;;;;;;16.07;9.20;;;;;;;3.16;67.31;100731.63;5021592;28;20472;-63
2021/04/08 06:20:27;;;;;;;13.52;8.70;;;;;;;3.15;67.22;100728.16;5036914;28;20283;-63
2021/04/08 06:23:04;;;;;;;16.98;8.35;;;;;;;3.15;67.37;100733.28;5038184;28;20124;-63
2021/04/08 06:25:41;;;;;;;10.88;7.68;;;;;;;3.16;66.74;100736.75;5056019;28;20068;-63
2021/04/08 06:28:18;;;;;;;12.82;9.43;;;;;;;3.15;67.12;100734.97;5038295;28;20039;-63
2021/04/08 06:30:52;;;;;;;12.00;8.93;;;;;;;3.15;67.31;100740.09;5054717;28;20041;-63
2021/04/08 06:33:23;;;;;;;12.18;8.45;;;;;;;3.15;66.99;100745.22;5021354;28;20487;-63
2021/04/08 06:35:57;;;;;;;16.17;8.98;;;;;;;3.15;67.49;100740.09;5055476;28;20045;-63
2021/04/08 06:38:32;;;;;;;;;;;;;;;3.14;67.05;100744.31;5022100;28;20037;-63
2021/04/08 06:41:00;;;;;;;14.88;8.65;;;;;;;3.14;67.47;100746.00;5055538;28;19913;-63
2021/04/08 06:43:37;;;;;;;17.05;8.18;;;;;;;3.14;67.14;100746.00;5055418;28;20076;-63
2021/04/08 06:46:12;;;;;;;14.15;9.05;;;;;;;3.14;67.00;100756.25;5055439;28;20025;-63
2021/04/08 06:48:53;;;;;;;12.82;9.27;;;;;;;3.13;67.19;100747.66;5055770;28;20047;-63
2021/04/08 06:51:25;;;;;;;10.70;8.18;;;;;;;3.13;67.22;100751.94;5037884;28;20120;-63
2021/04/08 06:53:56;;;;;;;13.23;8.63;;;;;;;3.14;67.68;100758.81;5037852;28;20037;-63
2021/04/08 06:56:30;;;;;;;14.40;7.72;;;;;;;3.14;67.11;100758.81;5055185;28;20037;-63
2021/04/08 06:58:59;;;;;;;;;;;;;;;3.12;66.96;100756.16;5055202;28;20075;-63
2021/04/08 07:01:25;;;;;;;13.93;8.25;;;;;;;3.12;67.30;100762.97;5020585;28;19962;-63
2021/04/08 07:04:01;;;;;;;11.93;7.80;;;;;;;3.12;67.09;100765.53;5037502;28;20037;-63
2021/04/08 07:06:35;;;;;;;9.75;6.50;;;;;;;3.12;67.30;100762.97;5020780;28;20047;-63
2021/04/08 07:09:07;;;;;;;12.30;8.38;;;;;;;3.12;67.39;100773.22;5037122;28;20070;-63
2021/04/08 07:11:41;;;;;;;14.35;8.93;;;;;;;3.13;67.40;100772.41;5053949;28;20507;-63
2021/04/08 07:14:12;;;;;;;;;;;;;;;3.12;66.97;100778.34;5055451;28;20032;-63
2021/04/08 07:16:45;;;;;;;11.95;8.65;;;;;;;3.12;67.37;100779.19;5021240;28;19958;-63
2021/04/08 07:19:28;;;;;;;12.98;8.27;;;;;;;3.12;66.92;100768.09;5053663;28;20033;-63
2021/04/08 07:22:02;;;;;;;10.63;8.15;;;;;;;3.12;67.31;100773.22;5020762;28;20152;-63
2021/04/08 07:24:49;;;;;;;12.70;8.30;;;;;;;3.12;67.28;100775.78;5053189;28;20033;-63
2021/04/08 07:27:22;;;;;;;10.88;7.40;;;;;;;3.12;67.12;100773.22;5037356;28;20082;-63
2021/04/08 07:29:57;;;;;;;13.38;7.93;;;;;;;3.12;67.09;100780.91;5054833;28;20044;-63
2021/04/08 07:32:39;;;;;;;11.80;7.82;;;;;;;3.12;67.08;100775.78;5036216;28;20045;-63
2021/04/08 07:35:20;;;;;;;12.25;7.97;;;;;;;3.11;67.25;100777.47;5037218;28;20033;-63
2021/04/08 07:38:01;;;;;;;11.48;7.78;;;;;;;3.11;67.00;100774.91;5054699;28;20072;-63
2021/04/08 07:40:32;;;;;;;15.95;8.43;;;;;;;3.12;66.75;100778.34;5036436;28;20136;-63
2021/04/08 07:43:18;;;;;;;12.05;8.07;;;;;;;3.11;67.22;100777.47;5020772;28;20041;-63
2021/04/08 07:45:54;;;;;;;17.63;7.88;;;;;;;3.12;67.38;100778.34;5053473;28;20566;-64
2021/04/08 07:48:40;;;;;;;12.68;8.02;;;;;;;3.11;67.33;100785.16;5053194;28;20091;-63
2021/04/08 07:51:26;;;;;;;13.15;7.70;;;;;;;3.12;67.05;100786.03;5019838;28;20044;-64
2021/04/08 07:54:21;;;;;;;12.07;7.18;;;;;;;3.10;67.14;100780.81;5052993;28;20040;-64
2021/04/08 07:57:05;;;;;;;12.00;8.05;;;;;;;3.11;67.41;100789.38;5053121;28;20120;-63
2021/04/08 07:59:33;;;;;;;12.02;8.57;;;;;;;3.11;67.23;100789.38;5035988;28;20055;-63
2021/04/08 08:02:11;;;;;;;12.52;7.80;;;;;;;3.11;67.45;100792.84;5053875;28;20045;-63
2021/04/08 08:04:42;;;;;;;9.63;7.72;;;;;;;3.11;67.26;100797.97;5052311;28;20036;-63
2021/04/08 08:07:28;;;;;;;15.82;9.13;;;;;;;3.11;66.98;100795.41;5053976;28;20036;-63
2021/04/08 08:10:07;;;;;;;12.25;7.15;;;;;;;3.12;67.03;100799.69;5053942;28;20488;-63
2021/04/08 08:12:41;;;;;;;11.75;8.80;;;;;;;3.11;67.32;100795.41;5054172;28;20079;-63
2021/04/08 08:15:25;;;;;;;13.00;8.27;;;;;;;3.12;67.04;100796.28;5036295;28;20047;-63
2021/04/08 08:17:57;;;;;;;12.52;7.85;;;;;;;3.12;66.73;100799.69;5019750;28;20082;-63
2021/04/08 08:20:28;;;;;;;16.23;8.00;;;;;;;3.13;66.92;100805.72;5053765;28;20041;-63
2021/04/08 08:23:02;;;;;;;13.52;7.63;;;;;;;3.11;67.00;100802.19;5054270;28;20056;-63
2021/04/08 08:25:36;;;;;;;11.07;7.85;;;;;;;3.11;66.91;100803.09;5036254;28;20040;-63
2021/04/08 08:28:10;;;;;;;10.25;7.28;;;;;;;3.14;67.01;100802.38;5019519;28;20051;-63
2021/04/08 08:30:52;;;;;;;10.98;7.93;;;;;;;3.14;66.82;100803.22;5019175;28;20029;-63
2021/04/08 08:33:29;;;;;;;11.43;7.57;;;;;;;3.13;67.21;100801.47;5036065;28;20029;-64
2021/04/08 08:36:03;;;;;;;10.02;6.97;;;;;;;3.14;66.69;100803.22;5053496;28;20048;-63
2021/04/08 08:38:37;;;;;;;14.50;8.10;;;;;;;3.14;66.82;100802.38;5035737;28;20048;-63
2021/04/08 08:41:14;;;;;;;10.82;7.07;;;;;;;3.14;66.73;100802.38;5035737;28;20515;-63
2021/04/08 08:43:49;;;;;;;12.13;7.18;;;;;;;3.13;66.50;100798.91;5051611;28;20559;-63
2021/04/08 08:46:26;;;;;;;10.80;6.32;;;;;;;3.13;67.03;100801.47;5035404;28;20124;-63
2021/04/08 08:49:00;;;;;;;9.18;6.55;;;;;;;3.11;66.45;100805.66;5035131;28;20037;-63
2021/04/08 08:51:32;;;;;;;8.38;6.10;;;;;;;3.12;66.79;100801.38;5053439;28;20453;-63
2021/04/08 08:54:05;;;;;;;8.93;6.03;;;;;;;3.11;66.59;100803.09;5052225;28;20072;-63
2021/04/08 08:56:43;;;;;;;10.73;6.57;;;;;;;3.13;66.12;100795.47;5019427;28;20045;-63
2021/04/08 08:59:15;;;;;;;9.18;5.68;;;;;;;3.13;66.27;100805.72;5053388;28;20122;-63
2021/04/08 09:01:52;;;;;;;9.02;5.65;;;;;;;3.14;66.51;100808.34;5053077;28;20504;-63
2021/04/08 09:04:27;;;;;;;9.35;5.97;;;;;;;3.14;66.08;100804.94;5053180;28;20094;-63
2021/04/08 09:07:04;;;;;;;8.68;5.95;;;;;;;3.14;66.35;100795.56;5035188;28;20037;-63
2021/04/08 09:09:35;;;;;;;9.38;5.82;;;;;;;3.17;66.50;100805.13;5053382;28;20075;-63
2021/04/08 09:12:16;;;;;;;8.23;5.40;;;;;;;3.18;66.37;100794.06;5052062;28;20127;-63
2021/04/08 09:14:50;;;;;;;7.47;5.68;;;;;;;3.18;66.36;100796.63;5018507;28;20059;-63
2021/04/08 09:17:37;;;;;;;7.50;6.10;;;;;;;3.18;66.09;100794.06;5035339;28;20041;-64
2021/04/08 09:20:10;;;;;;;10.73;6.95;;;;;;;3.19;65.79;100798.41;5015075;28;20055;-63
2021/04/08 09:22:58;;;;;;;7.63;6.00;;;;;;;3.21;65.96;100794.22;5053213;28;20037;-63
2021/04/08 09:26:00;;;;;;;8.00;4.90;;;;;;;3.23;66.45;100795.19;5015254;28;20048;-63
2021/04/08 09:28:28;;;;;;;9.38;5.75;;;;;;;3.26;66.20;100799.63;5012022;28;20049;-63
2021/04/08 09:33:48;;;;;;;10.48;4.95;;;;;;;3.24;65.79;100794.41;5052704;28;20040;-64
2021/04/08 09:36:25;;;;;;;8.98;6.55;;;;;;;3.26;65.85;100794.50;5035479;28;20132;-64
2021/04/08 09:39:14;;;;;;;7.15;5.75;;;;;;;3.27;65.57;100788.59;5035360;28;20136;-64
2021/04/08 09:41:46;;;;;;;10.55;6.20;;;;;;;3.28;65.78;100790.34;5052991;28;20037;-64
2021/04/08 09:44:17;;;;;;;9.30;5.95;;;;;;;3.29;65.84;100787.88;5052075;28;20041;-64
2021/04/08 09:46:50;;;;;;;9.15;6.50;;;;;;;3.30;66.33;100792.22;5052549;28;20033;-64
2021/04/08 09:49:39;;;;;;;8.43;5.90;;;;;;;3.28;65.56;100783.56;5051743;28;20124;-64
2021/04/08 09:52:12;;;;;;;10.02;6.35;;;;;;;3.29;65.88;100787.88;5028939;28;20136;-64
2021/04/08 09:54:51;;;;;;;11.13;6.65;;;;;;;3.30;65.88;100787.09;5053756;28;20044;-64
2021/04/08 09:57:39;;;;;;;7.30;6.07;;;;;;;3.31;65.42;100785.38;5056158;28;20033;-64
2021/04/08 10:00:16;;;;;;;13.00;7.03;;;;;;;3.32;65.51;100789.72;5056394;28;20044;-64
2021/04/08 10:03:11;;;;;;;7.43;6.70;;;;;;;3.32;65.92;100775.25;5056298;28;20075;-64
2021/04/08 10:05:42;;;;;;;11.82;7.78;;;;;;;3.34;65.98;100795.81;5047118;28;20049;-64
2021/04/08 10:08:23;;;;;;;10.40;7.35;;;;;;;3.35;65.57;100782.22;5038213;28;20411;-64
2021/04/08 10:10:57;;;;;;;10.00;7.38;;;;;;;3.35;65.87;100780.53;5056236;28;20549;-64
2021/04/08 10:13:32;;;;;;;13.55;8.18;;;;;;;3.36;66.07;100778.84;5038398;28;20044;-64
2021/04/08 10:16:15;;;;;;;11.20;8.23;;;;;;;3.40;65.78;100785.03;5056342;28;20052;-64
2021/04/08 10:19:02;;;;;;;11.43;7.73;;;;;;;3.43;65.68;100780.09;5056270;28;20170;-64
2021/04/08 10:21:35;;;;;;;12.88;8.98;;;;;;;3.45;65.77;100784.50;5055945;28;20461;-64
2021/04/08 10:24:16;;;;;;;15.88;8.95;;;;;;;3.46;65.92;100782.84;5022075;28;20049;-64
2021/04/08 10:26:47;;;;;;;15.95;8.77;;;;;;;3.47;65.23;100782.03;5038161;28;20044;-64
2021/04/08 10:29:33;;;;;;;10.68;8.52;;;;;;;3.49;65.66;100785.56;5037779;28;20575;-64
2021/04/08 10:32:04;;;;;;;11.25;8.23;;;;;;;3.46;65.29;100780.28;5054504;28;20504;-63
2021/04/08 10:34:41;;;;;;;10.85;8.57;;;;;;;3.45;65.54;100775.94;5021707;28;20029;-63
2021/04/08 10:37:22;;;;;;;13.57;8.38;;;;;;;3.46;65.49;100786.25;5037620;28;20519;-63
2021/04/08 10:39:56;;;;;;;12.38;8.35;;;;;;;3.47;65.31;100782.91;5055847;28;20129;-64
2021/04/08 10:42:33;;;;;;;14.30;8.68;;;;;;;3.47;65.00;100782.91;5055439;28;20040;-64
2021/04/08 10:45:10;;;;;;;10.90;9.05;;;;;;;3.47;65.19;100782.03;5055928;28;20110;-64
2021/04/08 10:47:46;;;;;;;11.32;8.05;;;;;;;3.49;65.47;100780.44;5020970;28;20033;-64
2021/04/08 10:50:20;;;;;;;10.77;9.60;;;;;;;3.47;65.51;100775.22;5021189;28;20033;-64
2021/04/08 10:52:57;;;;;;;16.63;9.27;;;;;;;3.49;64.99;100775.31;5037726;28;20046;-64
2021/04/08 10:55:30;;;;;;;9.30;8.25;;;;;;;3.49;65.14;100767.63;5055396;28;20144;-64
2021/04/08 10:58:06;;;;;;;14.30;8.27;;;;;;;3.48;65.34;100768.44;5054342;28;20119;-64
2021/04/08 11:00:43;;;;;;;11.60;8.65;;;;;;;3.48;65.28;100776.97;5054019;28;20033;-64
2021/04/08 11:03:15;;;;;;;12.65;8.95;;;;;;;3.50;65.03;100767.72;5018126;28;20045;-63
2021/04/08 11:05:47;;;;;;;11.20;8.63;;;;;;;3.49;64.96;100767.63;5015152;28;20120;-64
2021/04/08 11:08:20;;;;;;;14.63;8.10;;;;;;;3.48;64.62;100764.16;4997462;28;20030;-64
2021/04/08 11:10:54;;;;;;;10.43;8.35;;;;;;;3.50;65.01;100769.41;5014738;28;20424;-64
2021/04/08 11:13:32;;;;;;;;;;;;;;;3.49;65.53;100759.94;5014407;28;20405;-64
2021/04/08 11:16:09;;;;;;;17.05;9.35;;;;;;;3.50;65.09;100761.72;4998039;28;20400;-64
2021/04/08 11:18:40;;;;;;;12.52;9.00;;;;;;;3.50;65.29;100765.16;5015721;28;20504;-62
2021/04/08 11:21:16;;;;;;;13.77;9.85;;;;;;;3.51;65.36;100760.88;5014327;28;20044;-64
2021/04/08 11:23:44;;;;;;;11.50;8.15;;;;;;;3.52;65.13;100754.09;5030478;28;20045;-62
2021/04/08 11:26:23;;;;;;;16.45;9.02;;;;;;;3.53;64.77;100759.28;5015148;28;20037;-64
2021/04/08 11:29:00;;;;;;;9.95;8.23;;;;;;;3.53;64.88;100754.16;5015061;28;20045;-64
2021/04/08 11:31:34;;;;;;;11.27;9.32;;;;;;;3.56;64.71;100756.91;5015220;28;20040;-64
2021/04/08 11:34:05;;;;;;;13.10;9.15;;;;;;;3.58;64.72;100750.19;5015252;28;20049;-64
2021/04/08 11:36:40;;;;;;;9.70;8.65;;;;;;;3.59;64.69;100751.06;5030471;28;20030;-64
2021/04/08 11:39:14;;;;;;;13.48;9.10;;;;;;;3.60;65.40;100752.81;5013458;28;20093;-64
2021/04/08 11:41:46;;;;;;;;;;;;;;;3.60;65.35;100743.47;5015087;28;20038;-64
2021/04/08 11:44:34;;;;;;;11.85;8.98;;;;;;;3.58;64.61;100742.50;4997181;28;19913;-64
2021/04/08 11:47:13;;;;;;;11.52;9.10;;;;;;;3.57;64.98;100738.16;5013406;28;20048;-64
2021/04/08 11:49:51;;;;;;;14.60;8.20;;;;;;;3.60;64.66;100732.31;5014189;28;20045;-64
2021/04/08 11:52:27;;;;;;;16.50;9.75;;;;;;;3.60;64.90;100735.78;4997879;28;20037;-64
2021/04/08 11:55:06;;;;;;;10.85;8.63;;;;;;;3.64;64.88;100744.53;4997246;28;20059;-64
2021/04/08 11:57:52;;;;;;;12.25;9.18;;;;;;;3.64;64.50;100737.72;4996950;28;20184;-64
2021/04/08 12:00:27;;;;;;;9.45;8.13;;;;;;;3.65;64.66;100729.25;5014546;28;20113;-64
2021/04/08 12:02:55;;;;;;;12.25;9.43;;;;;;;3.67;64.86;100729.31;5023041;28;20050;-63
2021/04/08 12:05:34;;;;;;;10.38;8.73;;;;;;;3.68;64.40;100728.50;5014362;28;20034;-64
2021/04/08 12:08:11;;;;;;;14.45;10.05;;;;;;;3.72;64.85;100729.56;4996663;28;20053;-64
2021/04/08 12:10:42;;;;;;;17.35;9.55;;;;;;;3.74;64.74;100723.69;5014832;28;20113;-64
2021/04/08 12:13:23;;;;;;;11.02;8.40;;;;;;;3.77;64.71;100728.13;5013456;28;20077;-64
2021/04/08 12:16:00;;;;;;;10.25;9.15;;;;;;;3.79;65.00;100718.84;5013146;28;20486;-64
2021/04/08 12:18:35;;;;;;;14.25;9.55;;;;;;;3.82;64.65;100708.72;5012169;28;20552;-64